sensor_id;sensor_type;location;lat;lon;timestamp;pressure;altitude;pressure_sealevel;temperature;humidity
22930;BME280;11630;42.660;23.292;2023-12-20T00:01:27;67683.88;;;1.29;100.00
22930;BME280;11630;42.660;23.292;2023-12-20T00:03:57;67682.48;;;1.24;100.00
22930;BME280;11630;42.660;23.292;2023-12-20T00:06:29;67673.05;;;1.14;100.00
22930;BME280;11630;42.660;23.292;2023-12-20T00:09:00;67658.27;;;1.06;100.00
22930;BME280;11630;42.660;23.292;2023-12-20T00:11:31;67656.64;;;1.02;100.00
22930;BME280;11630;42.660;23.292;2023-12-20T00:14:02;67634.78;;;0.81;100.00
22930;BME280;11630;42.660;23.292;2023-12-20T00:16:33;67638.80;;;0.81;100.00
22930;BME280;11630;42.660;23.292;2023-12-20T00:19:04;67641.55;;;0.88;100.00
22930;BME280;11630;42.660;23.292;2023-12-20T00:21:35;67644.49;;;0.90;100.00
22930;BME280;11630;42.660;23.292;2023-12-20T00:24:06;67653.13;;;0.98;100.00
22930;BME280;11630;42.660;23.292;2023-12-20T00:26:37;67655.53;;;0.99;100.00
22930;BME280;11630;42.660;23.292;2023-12-20T00:29:07;67669.23;;;1.08;100.00
22930;BME280;11630;42.660;23.292;2023-12-20T00:31:38;67665.54;;;1.12;100.00
22930;BME280;11630;42.660;23.292;2023-12-20T00:34:09;67668.48;;;1.13;100.00
22930;BME280;11630;42.660;23.292;2023-12-20T00:36:39;67668.21;;;1.12;100.00
22930;BME280;11630;42.660;23.292;2023-12-20T00:39:11;67677.92;;;1.21;100.00
22930;BME280;11630;42.660;23.292;2023-12-20T00:41:41;67687.08;;;1.29;100.00
22930;BME280;11630;42.660;23.292;2023-12-20T00:44:12;67695.69;;;1.35;100.00
22930;BME280;11630;42.660;23.292;2023-12-20T00:46:43;67702.45;;;1.45;100.00
22930;BME280;11630;42.660;23.292;2023-12-20T00:49:14;67704.88;;;1.46;100.00
22930;BME280;11630;42.660;23.292;2023-12-20T00:51:44;67691.16;;;1.37;100.00
22930;BME280;11630;42.660;23.292;2023-12-20T00:54:16;67630.72;;;0.74;100.00
22930;BME280;11630;42.660;23.292;2023-12-20T00:56:47;67611.83;;;0.56;100.00
22930;BME280;11630;42.660;23.292;2023-12-20T00:59:18;67601.33;;;0.45;100.00
22930;BME280;11630;42.660;23.292;2023-12-20T01:01:50;67590.56;;;0.38;100.00
22930;BME280;11630;42.660;23.292;2023-12-20T01:04:20;67597.00;;;0.41;100.00
22930;BME280;11630;42.660;23.292;2023-12-20T01:06:51;67602.17;;;0.50;100.00
22930;BME280;11630;42.660;23.292;2023-12-20T01:09:22;67598.42;;;0.49;100.00
22930;BME280;11630;42.660;23.292;2023-12-20T01:11:53;67613.47;;;0.58;100.00
22930;BME280;11630;42.660;23.292;2023-12-20T01:14:24;67618.38;;;0.70;100.00
22930;BME280;11630;42.660;23.292;2023-12-20T01:16:55;67616.77;;;0.68;100.00
22930;BME280;11630;42.660;23.292;2023-12-20T01:19:25;67624.53;;;0.69;100.00
22930;BME280;11630;42.660;23.292;2023-12-20T01:21:55;67620.80;;;0.71;100.00
22930;BME280;11630;42.660;23.292;2023-12-20T01:24:25;67633.17;;;0.79;100.00
22930;BME280;11630;42.660;23.292;2023-12-20T01:26:56;67633.98;;;0.81;100.00
22930;BME280;11630;42.660;23.292;2023-12-20T01:29:27;67629.95;;;0.79;100.00
22930;BME280;11630;42.660;23.292;2023-12-20T01:31:58;67620.23;;;0.68;100.00
22930;BME280;11630;42.660;23.292;2023-12-20T01:34:29;67595.71;;;0.44;100.00
22930;BME280;11630;42.660;23.292;2023-12-20T01:36:59;67597.06;;;0.46;100.00
22930;BME280;11630;42.660;23.292;2023-12-20T01:39:30;67591.67;;;0.41;100.00
22930;BME280;11630;42.660;23.292;2023-12-20T01:42:01;67606.73;;;0.53;100.00
22930;BME280;11630;42.660;23.292;2023-12-20T01:44:32;67617.79;;;0.64;100.00
22930;BME280;11630;42.660;23.292;2023-12-20T01:47:03;67621.30;;;0.69;100.00
22930;BME280;11630;42.660;23.292;2023-12-20T01:49:34;67630.48;;;0.77;100.00
22930;BME280;11630;42.660;23.292;2023-12-20T01:52:05;67637.97;;;0.79;100.00
22930;BME280;11630;42.660;23.292;2023-12-20T01:54:37;67619.95;;;0.66;100.00
22930;BME280;11630;42.660;23.292;2023-12-20T01:57:08;67619.42;;;0.66;100.00
22930;BME280;11630;42.660;23.292;2023-12-20T01:59:41;67599.19;;;0.46;100.00
22930;BME280;11630;42.660;23.292;2023-12-20T02:02:11;67580.33;;;0.28;100.00
22930;BME280;11630;42.660;23.292;2023-12-20T02:04:42;67593.83;;;0.43;100.00
22930;BME280;11630;42.660;23.292;2023-12-20T02:07:13;67598.42;;;0.49;100.00
22930;BME280;11630;42.660;23.292;2023-12-20T02:09:44;67606.77;;;0.55;100.00
22930;BME280;11630;42.660;23.292;2023-12-20T02:12:15;67613.48;;;0.60;100.00
22930;BME280;11630;42.660;23.292;2023-12-20T02:14:46;67617.77;;;0.62;100.00
22930;BME280;11630;42.660;23.292;2023-12-20T02:17:17;67602.16;;;0.47;100.00
22930;BME280;11630;42.660;23.292;2023-12-20T02:19:49;67599.44;;;0.45;100.00
22930;BME280;11630;42.660;23.292;2023-12-20T02:22:19;67593.27;;;0.40;100.00
22930;BME280;11630;42.660;23.292;2023-12-20T02:24:50;67590.56;;;0.38;100.00
22930;BME280;11630;42.660;23.292;2023-12-20T02:27:21;67570.44;;;0.25;100.00
22930;BME280;11630;42.660;23.292;2023-12-20T02:29:54;67577.16;;;0.30;100.00
22930;BME280;11630;42.660;23.292;2023-12-20T02:32:25;67586.84;;;0.37;100.00
22930;BME280;11630;42.660;23.292;2023-12-20T02:34:56;67579.27;;;0.30;100.00
22930;BME280;11630;42.660;23.292;2023-12-20T02:37:27;67590.86;;;0.39;100.00
22930;BME280;11630;42.660;23.292;2023-12-20T02:39:57;67578.45;;;0.25;100.00
22930;BME280;11630;42.660;23.292;2023-12-20T02:42:28;67581.20;;;0.35;100.00
22930;BME280;11630;42.660;23.292;2023-12-20T02:44:59;67593.00;;;0.41;100.00
22930;BME280;11630;42.660;23.292;2023-12-20T02:47:31;67602.20;;;0.52;100.00
22930;BME280;11630;42.660;23.292;2023-12-20T02:50:01;67606.70;;;0.50;100.00
22930;BME280;11630;42.660;23.292;2023-12-20T02:52:32;67605.44;;;0.55;100.00
22930;BME280;11630;42.660;23.292;2023-12-20T02:55:03;67613.17;;;0.56;100.00
22930;BME280;11630;42.660;23.292;2023-12-20T02:57:34;67607.33;;;0.58;100.00
22930;BME280;11630;42.660;23.292;2023-12-20T03:00:05;67605.13;;;0.51;100.00
22930;BME280;11630;42.660;23.292;2023-12-20T03:02:37;67610.02;;;0.61;100.00
22930;BME280;11630;42.660;23.292;2023-12-20T03:05:08;67583.84;;;0.33;100.00
22930;BME280;11630;42.660;23.292;2023-12-20T03:07:38;67597.59;;;0.47;100.00
22930;BME280;11630;42.660;23.292;2023-12-20T03:10:09;67605.38;;;0.50;100.00
22930;BME280;11630;42.660;23.292;2023-12-20T03:12:40;67609.73;;;0.59;100.00
22930;BME280;11630;42.660;23.292;2023-12-20T03:15:11;67595.98;;;0.45;100.00
22930;BME280;11630;42.660;23.292;2023-12-20T03:17:42;67595.67;;;0.41;100.00
22930;BME280;11630;42.660;23.292;2023-12-20T03:20:13;67582.77;;;0.32;100.00
22930;BME280;11630;42.660;23.292;2023-12-20T03:22:44;67569.36;;;0.24;100.00
22930;BME280;11630;42.660;23.292;2023-12-20T03:25:15;67575.23;;;0.25;100.00
22930;BME280;11630;42.660;23.292;2023-12-20T03:27:46;67578.74;;;0.29;100.00
22930;BME280;11630;42.660;23.292;2023-12-20T03:30:17;67583.59;;;0.34;100.00
22930;BME280;11630;42.660;23.292;2023-12-20T03:32:48;67595.95;;;0.40;100.00
22930;BME280;11630;42.660;23.292;2023-12-20T03:35:18;67598.95;;;0.49;100.00
22930;BME280;11630;42.660;23.292;2023-12-20T03:37:52;67617.55;;;0.68;100.00
22930;BME280;11630;42.660;23.292;2023-12-20T03:40:23;67611.90;;;0.61;100.00
22930;BME280;11630;42.660;23.292;2023-12-20T03:42:54;67627.50;;;0.73;100.00
22930;BME280;11630;42.660;23.292;2023-12-20T03:45:24;67604.10;;;0.55;100.00
22930;BME280;11630;42.660;23.292;2023-12-20T03:47:55;67606.24;;;0.57;100.00
22930;BME280;11630;42.660;23.292;2023-12-20T03:50:26;67589.78;;;0.38;100.00
22930;BME280;11630;42.660;23.292;2023-12-20T03:52:57;67551.30;;;0.06;100.00
22930;BME280;11630;42.660;23.292;2023-12-20T03:55:28;67567.41;;;0.16;100.00
22930;BME280;11630;42.660;23.292;2023-12-20T03:57:59;67528.66;;;-0.17;100.00
22930;BME280;11630;42.660;23.292;2023-12-20T04:00:30;67510.63;;;-0.32;100.00
22930;BME280;11630;42.660;23.292;2023-12-20T04:03:01;67546.38;;;-0.05;100.00
22930;BME280;11630;42.660;23.292;2023-12-20T04:05:30;67516.23;;;-0.33;100.00
22930;BME280;11630;42.660;23.292;2023-12-20T04:08:02;67523.79;;;-0.24;100.00
22930;BME280;11630;42.660;23.292;2023-12-20T04:10:33;67505.75;;;-0.39;100.00
22930;BME280;11630;42.660;23.292;2023-12-20T04:13:04;67542.89;;;-0.07;100.00
22930;BME280;11630;42.660;23.292;2023-12-20T04:15:35;67528.64;;;-0.19;100.00
22930;BME280;11630;42.660;23.292;2023-12-20T04:18:07;67548.02;;;-0.02;100.00
22930;BME280;11630;42.660;23.292;2023-12-20T04:20:38;67549.89;;;-0.01;100.00
22930;BME280;11630;42.660;23.292;2023-12-20T04:23:09;67528.64;;;-0.19;100.00
22930;BME280;11630;42.660;23.292;2023-12-20T04:25:39;67513.56;;;-0.33;100.00
22930;BME280;11630;42.660;23.292;2023-12-20T04:28:10;67518.69;;;-0.27;100.00
22930;BME280;11630;42.660;23.292;2023-12-20T04:30:41;67541.58;;;-0.05;100.00
22930;BME280;11630;42.660;23.292;2023-12-20T04:33:12;67548.33;;;0.02;100.00
22930;BME280;11630;42.660;23.292;2023-12-20T04:35:43;67556.38;;;0.07;100.00
22930;BME280;11630;42.660;23.292;2023-12-20T04:38:14;67542.63;;;-0.06;100.00
22930;BME280;11630;42.660;23.292;2023-12-20T04:40:45;67576.05;;;0.27;100.00
22930;BME280;11630;42.660;23.292;2023-12-20T04:43:16;67525.14;;;-0.21;100.00
22930;BME280;11630;42.660;23.292;2023-12-20T04:45:47;67530.02;;;-0.14;100.00
22930;BME280;11630;42.660;23.292;2023-12-20T04:48:17;67511.42;;;-0.33;100.00
22930;BME280;11630;42.660;23.292;2023-12-20T04:50:48;67513.29;;;-0.32;100.00
22930;BME280;11630;42.660;23.292;2023-12-20T04:53:19;67500.17;;;-0.38;100.00
22930;BME280;11630;42.660;23.292;2023-12-20T04:55:50;67504.72;;;-0.38;100.00
22930;BME280;11630;42.660;23.292;2023-12-20T04:58:21;67511.70;;;-0.31;100.00
22930;BME280;11630;42.660;23.292;2023-12-20T05:00:52;67524.57;;;-0.24;100.00
22930;BME280;11630;42.660;23.292;2023-12-20T05:03:23;67545.58;;;-0.05;100.00
22930;BME280;11630;42.660;23.292;2023-12-20T05:05:54;67549.92;;;0.01;100.00
22930;BME280;11630;42.660;23.292;2023-12-20T05:08:25;67559.91;;;0.14;100.00
22930;BME280;11630;42.660;23.292;2023-12-20T05:10:55;67562.31;;;0.13;100.00
22930;BME280;11630;42.660;23.292;2023-12-20T05:13:26;67580.10;;;0.32;100.00
22930;BME280;11630;42.660;23.292;2023-12-20T05:15:57;67574.41;;;0.23;100.00
22930;BME280;11630;42.660;23.292;2023-12-20T05:18:28;67573.62;;;0.23;100.00
22930;BME280;11630;42.660;23.292;2023-12-20T05:20:59;67566.86;;;0.16;100.00
22930;BME280;11630;42.660;23.292;2023-12-20T05:23:30;67579.27;;;0.30;100.00
22930;BME280;11630;42.660;23.292;2023-12-20T05:26:02;67581.44;;;0.32;100.00
22930;BME280;11630;42.660;23.292;2023-12-20T05:28:33;67579.27;;;0.30;100.00
22930;BME280;11630;42.660;23.292;2023-12-20T05:31:04;67591.37;;;0.37;100.00
22930;BME280;11630;42.660;23.292;2023-12-20T05:33:34;67577.37;;;0.24;100.00
22930;BME280;11630;42.660;23.292;2023-12-20T05:36:06;67537.58;;;-0.05;100.00
22930;BME280;11630;42.660;23.292;2023-12-20T05:38:37;67512.78;;;-0.30;100.00
22930;BME280;11630;42.660;23.292;2023-12-20T05:41:08;67492.03;;;-0.51;100.00
22930;BME280;11630;42.660;23.292;2023-12-20T05:43:39;67495.25;;;-0.50;100.00
22930;BME280;11630;42.660;23.292;2023-12-20T05:46:10;67568.23;;;0.18;100.00
22930;BME280;11630;42.660;23.292;2023-12-20T05:48:40;67573.06;;;0.23;100.00
22930;BME280;11630;42.660;23.292;2023-12-20T05:51:12;67546.74;;;0.03;100.00
22930;BME280;11630;42.660;23.292;2023-12-20T05:53:42;67549.69;;;0.05;100.00
22930;BME280;11630;42.660;23.292;2023-12-20T05:56:13;67561.76;;;0.12;100.00
22930;BME280;11630;42.660;23.292;2023-12-20T05:58:44;67535.92;;;-0.11;100.00
22930;BME280;11630;42.660;23.292;2023-12-20T06:01:16;67547.19;;;-0.03;100.00
22930;BME280;11630;42.660;23.292;2023-12-20T06:03:50;67511.68;;;-0.34;100.00
22930;BME280;11630;42.660;23.292;2023-12-20T06:06:21;67523.81;;;-0.21;100.00
22930;BME280;11630;42.660;23.292;2023-12-20T06:08:52;67531.38;;;-0.12;100.00
22930;BME280;11630;42.660;23.292;2023-12-20T06:11:23;67532.68;;;-0.14;100.00
22930;BME280;11630;42.660;23.292;2023-12-20T06:13:52;67521.14;;;-0.21;100.00
22930;BME280;11630;42.660;23.292;2023-12-20T06:16:22;67520.83;;;-0.25;100.00
22930;BME280;11630;42.660;23.292;2023-12-20T06:18:53;67497.20;;;-0.42;100.00
22930;BME280;11630;42.660;23.292;2023-12-20T06:21:26;67522.48;;;-0.21;100.00
22930;BME280;11630;42.660;23.292;2023-12-20T06:23:55;67482.41;;;-0.55;100.00
22930;BME280;11630;42.660;23.292;2023-12-20T06:26:27;67495.80;;;-0.47;100.00
22930;BME280;11630;42.660;23.292;2023-12-20T06:28:57;67481.31;;;-0.58;100.00
22930;BME280;11630;42.660;23.292;2023-12-20T06:31:28;67482.39;;;-0.57;100.00
22930;BME280;11630;42.660;23.292;2023-12-20T06:33:59;67457.05;;;-0.83;100.00
22930;BME280;11630;42.660;23.292;2023-12-20T06:36:30;67484.75;;;-0.59;100.00
22930;BME280;11630;42.660;23.292;2023-12-20T06:39:01;67489.05;;;-0.57;100.00
22930;BME280;11630;42.660;23.292;2023-12-20T06:41:31;67502.28;;;-0.41;100.00
22930;BME280;11630;42.660;23.292;2023-12-20T06:44:02;67529.70;;;-0.18;100.00
22930;BME280;11630;42.660;23.292;2023-12-20T06:46:32;67552.59;;;0.01;100.00
22930;BME280;11630;42.660;23.292;2023-12-20T06:49:02;67558.28;;;0.10;100.00
22930;BME280;11630;42.660;23.292;2023-12-20T06:51:34;67549.66;;;0.02;100.00
22930;BME280;11630;42.660;23.292;2023-12-20T06:54:05;67552.88;;;0.05;100.00
22930;BME280;11630;42.660;23.292;2023-12-20T06:56:35;67540.47;;;-0.08;100.00
22930;BME280;11630;42.660;23.292;2023-12-20T06:59:06;67550.17;;;0.00;100.00
22930;BME280;11630;42.660;23.292;2023-12-20T07:01:37;67555.05;;;0.07;100.00
22930;BME280;11630;42.660;23.292;2023-12-20T07:04:08;67553.14;;;0.04;100.00
22930;BME280;11630;42.660;23.292;2023-12-20T07:06:41;67522.16;;;-0.25;100.00
22930;BME280;11630;42.660;23.292;2023-12-20T07:09:12;67532.94;;;-0.15;100.00
22930;BME280;11630;42.660;23.292;2023-12-20T07:11:43;67528.94;;;-0.15;100.00
22930;BME280;11630;42.660;23.292;2023-12-20T07:14:14;67520.57;;;-0.24;100.00
22930;BME280;11630;42.660;23.292;2023-12-20T07:16:45;67535.09;;;-0.13;100.00
22930;BME280;11630;42.660;23.292;2023-12-20T07:19:15;67556.08;;;0.03;100.00
22930;BME280;11630;42.660;23.292;2023-12-20T07:21:46;67558.84;;;0.13;100.00
22930;BME280;11630;42.660;23.292;2023-12-20T07:24:17;67574.15;;;0.24;100.00
22930;BME280;11630;42.660;23.292;2023-12-20T07:26:48;67578.98;;;0.26;100.00
22930;BME280;11630;42.660;23.292;2023-12-20T07:29:18;67592.47;;;0.41;100.00
22930;BME280;11630;42.660;23.292;2023-12-20T07:31:49;67605.13;;;0.51;100.00
22930;BME280;11630;42.660;23.292;2023-12-20T07:34:20;67604.87;;;0.52;100.00
22930;BME280;11630;42.660;23.292;2023-12-20T07:36:51;67624.53;;;0.69;100.00
22930;BME280;11630;42.660;23.292;2023-12-20T07:39:22;67639.62;;;0.83;100.00
22930;BME280;11630;42.660;23.292;2023-12-20T07:41:53;67642.08;;;0.89;100.00
22930;BME280;11630;42.660;23.292;2023-12-20T07:44:23;67659.84;;;1.03;100.00
22930;BME280;11630;42.660;23.292;2023-12-20T07:46:54;67592.49;;;0.43;100.00
22930;BME280;11630;42.660;23.292;2023-12-20T07:49:25;67590.03;;;0.37;100.00
22930;BME280;11630;42.660;23.292;2023-12-20T07:51:56;67611.07;;;0.59;100.00
22930;BME280;11630;42.660;23.292;2023-12-20T07:54:26;67601.88;;;0.48;100.00
22930;BME280;11630;42.660;23.292;2023-12-20T07:56:57;67590.56;;;0.38;100.00
22930;BME280;11630;42.660;23.292;2023-12-20T07:59:28;67591.94;;;0.40;100.00
22930;BME280;11630;42.660;23.292;2023-12-20T08:01:58;67612.16;;;0.60;100.00
22930;BME280;11630;42.660;23.292;2023-12-20T08:04:29;67626.19;;;0.75;100.00
22930;BME280;11630;42.660;23.292;2023-12-20T08:06:59;67645.00;;;0.88;100.00
22930;BME280;11630;42.660;23.292;2023-12-20T08:09:29;67661.49;;;1.07;100.00
22930;BME280;11630;42.660;23.292;2023-12-20T08:12:00;67681.63;;;1.19;100.00
22930;BME280;11630;42.660;23.292;2023-12-20T08:14:31;67736.97;;;1.74;100.00
22930;BME280;11630;42.660;23.292;2023-12-20T08:17:02;67725.36;;;1.62;100.00
22930;BME280;11630;42.660;23.292;2023-12-20T08:19:32;67725.91;;;1.65;100.00
22930;BME280;11630;42.660;23.292;2023-12-20T08:22:03;67728.61;;;1.67;100.00
22930;BME280;11630;42.660;23.292;2023-12-20T08:24:33;67857.63;;;2.86;100.00
22930;BME280;11630;42.660;23.292;2023-12-20T08:27:05;67851.91;;;2.77;100.00
22930;BME280;11630;42.660;23.292;2023-12-20T08:29:36;67876.52;;;3.03;100.00
22930;BME280;11630;42.660;23.292;2023-12-20T08:32:10;67897.61;;;3.25;100.00
22930;BME280;11630;42.660;23.292;2023-12-20T08:34:41;67877.61;;;3.04;100.00
22930;BME280;11630;42.660;23.292;2023-12-20T08:37:12;67863.05;;;2.96;100.00
22930;BME280;11630;42.660;23.292;2023-12-20T08:39:43;67866.52;;;2.93;100.00
22930;BME280;11630;42.660;23.292;2023-12-20T08:42:14;67859.73;;;2.83;100.00
22930;BME280;11630;42.660;23.292;2023-12-20T08:44:44;67837.64;;;2.68;100.00
22930;BME280;11630;42.660;23.292;2023-12-20T08:47:15;67864.36;;;2.91;100.00
22930;BME280;11630;42.660;23.292;2023-12-20T08:49:46;67866.80;;;2.95;100.00
22930;BME280;11630;42.660;23.292;2023-12-20T08:52:17;67887.86;;;3.14;100.00
22930;BME280;11630;42.660;23.292;2023-12-20T08:54:47;67899.45;;;3.21;100.00
22930;BME280;11630;42.660;23.292;2023-12-20T08:57:19;67911.36;;;3.34;100.00
22930;BME280;11630;42.660;23.292;2023-12-20T08:59:50;67886.77;;;3.10;100.00
22930;BME280;11630;42.660;23.292;2023-12-20T09:02:21;67905.14;;;3.27;100.00
22930;BME280;11630;42.660;23.292;2023-12-20T09:04:52;67895.16;;;3.19;100.00
22930;BME280;11630;42.660;23.292;2023-12-20T09:07:27;67907.88;;;3.35;100.00
22930;BME280;11630;42.660;23.292;2023-12-20T09:09:58;67891.64;;;3.17;100.00
22930;BME280;11630;42.660;23.292;2023-12-20T09:12:30;67921.34;;;3.42;100.00
22930;BME280;11630;42.660;23.292;2023-12-20T09:15:01;67878.12;;;3.03;100.00
22930;BME280;11630;42.660;23.292;2023-12-20T09:17:31;67901.89;;;3.24;100.00
22930;BME280;11630;42.660;23.292;2023-12-20T09:20:01;67895.95;;;3.21;100.00
22930;BME280;11630;42.660;23.292;2023-12-20T09:22:32;67849.51;;;2.79;100.00
22930;BME280;11630;42.660;23.292;2023-12-20T09:25:04;67865.42;;;2.90;100.00
22930;BME280;11630;42.660;23.292;2023-12-20T09:27:35;67874.87;;;3.00;100.00
22930;BME280;11630;42.660;23.292;2023-12-20T09:30:08;67883.26;;;3.08;100.00
22930;BME280;11630;42.660;23.292;2023-12-20T09:32:38;67842.78;;;2.74;100.00
22930;BME280;11630;42.660;23.292;2023-12-20T09:35:10;67884.34;;;3.09;100.00
22930;BME280;11630;42.660;23.292;2023-12-20T09:37:41;67904.86;;;3.28;100.00
22930;BME280;11630;42.660;23.292;2023-12-20T09:40:13;67901.06;;;3.22;100.00
22930;BME280;11630;42.660;23.292;2023-12-20T09:42:50;67913.01;;;3.41;100.00
22930;BME280;11630;42.660;23.292;2023-12-20T09:45:20;67894.10;;;3.23;100.00
22930;BME280;11630;42.660;23.292;2023-12-20T09:47:57;67932.14;;;3.52;100.00
22930;BME280;11630;42.660;23.292;2023-12-20T09:50:23;67931.31;;;3.50;100.00
22930;BME280;11630;42.660;23.292;2023-12-20T09:52:54;67878.69;;;3.05;100.00
22930;BME280;11630;42.660;23.292;2023-12-20T09:55:26;67921.63;;;3.44;100.00
22930;BME280;11630;42.660;23.292;2023-12-20T09:57:59;67936.25;;;3.62;100.00
22930;BME280;11630;42.660;23.292;2023-12-20T10:00:31;67944.05;;;3.63;100.00
22930;BME280;11630;42.660;23.292;2023-12-20T10:03:02;67961.06;;;3.80;100.00
22930;BME280;11630;42.660;23.292;2023-12-20T10:05:33;67988.09;;;4.02;100.00
22930;BME280;11630;42.660;23.292;2023-12-20T10:08:03;67992.13;;;4.05;100.00
22930;BME280;11630;42.660;23.292;2023-12-20T10:10:33;67991.39;;;4.13;100.00
22930;BME280;11630;42.660;23.292;2023-12-20T10:13:10;68008.92;;;4.23;100.00
22930;BME280;11630;42.660;23.292;2023-12-20T10:15:42;68024.33;;;4.36;100.00
22930;BME280;11630;42.660;23.292;2023-12-20T10:18:13;68047.04;;;4.56;100.00
22930;BME280;11630;42.660;23.292;2023-12-20T10:20:43;68072.75;;;4.81;100.00
22930;BME280;11630;42.660;23.292;2023-12-20T10:23:15;68087.09;;;4.96;100.00
22930;BME280;11630;42.660;23.292;2023-12-20T10:25:55;68142.86;;;5.47;100.00
22930;BME280;11630;42.660;23.292;2023-12-20T10:28:17;68176.71;;;5.77;100.00
22930;BME280;11630;42.660;23.292;2023-12-20T10:30:48;68189.97;;;5.88;100.00
22930;BME280;11630;42.660;23.292;2023-12-20T10:33:27;68190.27;;;5.92;100.00
22930;BME280;11630;42.660;23.292;2023-12-20T10:36:00;68200.87;;;6.08;100.00
22930;BME280;11630;42.660;23.292;2023-12-20T10:38:30;68222.52;;;6.22;100.00
22930;BME280;11630;42.660;23.292;2023-12-20T10:41:04;68198.11;;;5.98;100.00
22930;BME280;11630;42.660;23.292;2023-12-20T10:43:38;68158.80;;;5.58;100.00
22930;BME280;11630;42.660;23.292;2023-12-20T10:46:09;68208.96;;;6.10;100.00
22930;BME280;11630;42.660;23.292;2023-12-20T10:48:40;68212.45;;;6.09;100.00
22930;BME280;11630;42.660;23.292;2023-12-20T10:51:11;68250.39;;;6.44;100.00
22930;BME280;11630;42.660;23.292;2023-12-20T10:53:43;68260.42;;;6.55;100.00
22930;BME280;11630;42.660;23.292;2023-12-20T10:56:16;68258.52;;;6.52;100.00
22930;BME280;11630;42.660;23.292;2023-12-20T10:58:48;68267.77;;;6.65;100.00
22930;BME280;11630;42.660;23.292;2023-12-20T11:01:19;68259.88;;;6.57;100.00
22930;BME280;11630;42.660;23.292;2023-12-20T11:03:51;68213.81;;;6.12;100.00
22930;BME280;11630;42.660;23.292;2023-12-20T11:06:49;68208.91;;;6.03;100.00
22930;BME280;11630;42.660;23.292;2023-12-20T11:09:25;68216.81;;;6.18;100.00
22930;BME280;11630;42.660;23.292;2023-12-20T11:12:18;68225.47;;;6.21;100.00
22930;BME280;11630;42.660;23.292;2023-12-20T11:14:50;68123.92;;;5.32;100.00
22930;BME280;11630;42.660;23.292;2023-12-20T11:17:20;68155.05;;;5.59;100.00
22930;BME280;11630;42.660;23.292;2023-12-20T11:22:34;68116.60;;;5.24;100.00
22930;BME280;11630;42.660;23.292;2023-12-20T11:25:10;68150.70;;;5.53;100.00
22930;BME280;11630;42.660;23.292;2023-12-20T11:27:42;68151.26;;;5.56;100.00
22930;BME280;11630;42.660;23.292;2023-12-20T11:30:14;68152.61;;;5.56;100.00
22930;BME280;11630;42.660;23.292;2023-12-20T11:32:45;68189.98;;;5.90;100.00
22930;BME280;11630;42.660;23.292;2023-12-20T11:35:20;68198.38;;;5.99;100.00
22930;BME280;11630;42.660;23.292;2023-12-20T11:37:52;68210.58;;;6.11;100.00
22930;BME280;11630;42.660;23.292;2023-12-20T11:40:24;68187.83;;;5.88;100.00
22930;BME280;11630;42.660;23.292;2023-12-20T11:42:55;68176.95;;;5.76;100.00
22930;BME280;11630;42.660;23.292;2023-12-20T11:45:25;68086.83;;;4.97;100.00
22930;BME280;11630;42.660;23.292;2023-12-20T11:47:56;68080.36;;;4.93;100.00
22930;BME280;11630;42.660;23.292;2023-12-20T11:50:28;68099.54;;;5.07;100.00
22930;BME280;11630;42.660;23.292;2023-12-20T11:52:58;68097.66;;;5.07;100.00
22930;BME280;11630;42.660;23.292;2023-12-20T11:55:29;68056.27;;;4.67;100.00
22930;BME280;11630;42.660;23.292;2023-12-20T11:58:00;68099.78;;;5.04;100.00
22930;BME280;11630;42.660;23.292;2023-12-20T12:00:31;68124.95;;;5.26;100.00
22930;BME280;11630;42.660;23.292;2023-12-20T12:03:03;68133.63;;;5.36;100.00
22930;BME280;11630;42.660;23.292;2023-12-20T12:05:34;68179.67;;;5.78;100.00
22930;BME280;11630;42.660;23.292;2023-12-20T12:08:04;68166.41;;;5.67;100.00
22930;BME280;11630;42.660;23.292;2023-12-20T12:10:34;68132.78;;;5.31;100.00
22930;BME280;11630;42.660;23.292;2023-12-20T12:13:05;68143.39;;;5.47;100.00
22930;BME280;11630;42.660;23.292;2023-12-20T12:15:37;68148.00;;;5.53;100.00
22930;BME280;11630;42.660;23.292;2023-12-20T12:18:08;68153.67;;;5.57;100.00
22930;BME280;11630;42.660;23.292;2023-12-20T12:20:41;68188.62;;;5.88;100.00
22930;BME280;11630;42.660;23.292;2023-12-20T12:23:11;68197.28;;;5.96;100.00
22930;BME280;11630;42.660;23.292;2023-12-20T12:25:42;68200.55;;;5.99;100.00
22930;BME280;11630;42.660;23.292;2023-12-20T12:28:14;68203.02;;;6.07;100.00
22930;BME280;11630;42.660;23.292;2023-12-20T12:30:58;68228.70;;;6.24;100.00
22930;BME280;11630;42.660;23.292;2023-12-20T12:33:29;68231.98;;;6.30;100.00
22930;BME280;11630;42.660;23.292;2023-12-20T12:36:01;68186.16;;;5.82;100.00
22930;BME280;11630;42.660;23.292;2023-12-20T12:38:32;68139.59;;;5.44;100.00
22930;BME280;11630;42.660;23.292;2023-12-20T12:41:03;68197.84;;;5.99;100.00
22930;BME280;11630;42.660;23.292;2023-12-20T12:43:34;68182.11;;;5.79;100.00
22930;BME280;11630;42.660;23.292;2023-12-20T12:46:06;68156.67;;;5.61;100.00
22930;BME280;11630;42.660;23.292;2023-12-20T12:48:37;68146.92;;;5.54;100.00
22930;BME280;11630;42.660;23.292;2023-12-20T12:51:08;68137.73;;;5.46;100.00
22930;BME280;11630;42.660;23.292;2023-12-20T12:53:39;68112.27;;;5.20;100.00
22930;BME280;11630;42.660;23.292;2023-12-20T12:56:10;68113.61;;;5.20;100.00
22930;BME280;11630;42.660;23.292;2023-12-20T12:58:42;68124.70;;;5.29;100.00
22930;BME280;11630;42.660;23.292;2023-12-20T13:01:12;68125.02;;;5.35;100.00
22930;BME280;11630;42.660;23.292;2023-12-20T13:03:43;68145.02;;;5.49;100.00
22930;BME280;11630;42.660;23.292;2023-12-20T13:06:14;68135.02;;;5.41;100.00
22930;BME280;11630;42.660;23.292;2023-12-20T13:08:45;68138.25;;;5.44;100.00
22930;BME280;11630;42.660;23.292;2023-12-20T13:11:16;68136.63;;;5.42;100.00